Time;durP1;ratioP1;P1;durP2;ratioP2;P2;SDS_P1;SDS_P2;PMS_P1;PMS_P2;Temp;Humidity;BMP_temperature;BMP_pressure;BME280_temperature;BME280_humidity;BME280_pressure;Samples;Min_cycle;Max_cycle;Signal;HPM_P1;HPM_P2
2021/12/09 00:01:01;;;;;;;16.30;5.88;;;;;;;4.32;100.00;99966.38;5147668;27;20154;-68
2021/12/09 00:03:29;;;;;;;12.13;6.47;;;;;;;4.29;100.00;99973.13;5096622;27;20034;-69
2021/12/09 00:05:56;;;;;;;12.70;6.35;;;;;;;4.18;100.00;99966.00;5148542;27;20023;-69
2021/12/09 00:08:25;;;;;;;12.25;6.07;;;;;;;4.20;100.00;99977.44;5128046;27;20407;-69
2021/12/09 00:10:52;;;;;;;15.65;6.25;;;;;;;4.19;100.00;99976.59;5129221;27;20026;-69
2021/12/09 00:13:18;;;;;;;19.75;6.30;;;;;;;4.16;100.00;99976.31;5093949;27;20079;-69
2021/12/09 00:15:43;;;;;;;13.23;6.32;;;;;;;4.11;100.00;99976.28;5147706;27;20399;-69
2021/12/09 00:18:10;;;;;;;12.20;6.38;;;;;;;4.05;100.00;99975.44;5125393;27;20035;-69
2021/12/09 00:20:35;;;;;;;15.82;6.28;;;;;;;4.02;100.00;99979.47;5094349;27;20115;-69
2021/12/09 00:23:01;;;;;;;13.27;6.32;;;;;;;3.98;100.00;99983.75;5099824;27;20133;-68
2021/12/09 00:25:27;;;;;;;17.00;6.68;;;;;;;4.01;100.00;99985.16;5107457;27;20050;-70
2021/12/09 00:27:52;;;;;;;14.32;6.50;;;;;;;3.91;100.00;99972.31;5106452;27;20532;-69
2021/12/09 00:30:20;;;;;;;12.07;6.28;;;;;;;3.89;100.00;99973.66;5107514;27;20030;-68
2021/12/09 00:32:45;;;;;;;14.18;6.07;;;;;;;3.82;100.00;99974.72;5118193;27;20038;-69
2021/12/09 00:35:14;;;;;;;11.25;6.22;;;;;;;3.86;100.00;99981.22;5128965;27;20031;-69
2021/12/09 00:37:51;;;;;;;11.82;6.20;;;;;;;3.70;100.00;99981.38;5108740;27;20107;-70
2021/12/09 00:40:17;;;;;;;14.95;6.43;;;;;;;3.62;100.00;99988.91;5145781;27;20022;-70
2021/12/09 00:42:42;;;;;;;16.50;6.53;;;;;;;3.58;100.00;99990.47;5146368;27;20038;-69
2021/12/09 00:45:08;;;;;;;12.88;6.72;;;;;;;3.58;100.00;99985.06;5127733;27;20499;-68
2021/12/09 00:47:33;;;;;;;10.23;6.32;;;;;;;3.63;100.00;99987.81;5141912;27;20586;-70
2021/12/09 00:49:59;;;;;;;16.05;7.32;;;;;;;3.58;100.00;99987.78;5147643;27;20022;-69
2021/12/09 00:52:25;;;;;;;13.80;6.07;;;;;;;3.64;100.00;99996.75;5142294;27;20117;-69
2021/12/09 00:54:52;;;;;;;12.60;7.13;;;;;;;3.61;100.00;99989.97;5128664;27;20026;-68
2021/12/09 00:57:18;;;;;;;18.83;8.00;;;;;;;3.60;100.00;99985.59;5147512;27;20082;-70
2021/12/09 00:59:44;;;;;;;17.48;8.07;;;;;;;3.54;100.00;99981.22;5147693;27;20023;-69
2021/12/09 01:02:10;;;;;;;14.25;7.72;;;;;;;3.58;100.00;99978.81;5122806;27;20369;-68
2021/12/09 01:04:37;;;;;;;18.83;8.30;;;;;;;3.51;100.00;99984.47;5090739;27;20868;-69
2021/12/09 01:07:06;;;;;;;18.08;8.25;;;;;;;3.54;100.00;99977.69;5132471;27;20026;-69
2021/12/09 01:09:32;;;;;;;22.25;8.93;;;;;;;3.67;100.00;99978.09;5109542;27;20099;-68
2021/12/09 01:11:58;;;;;;;24.27;9.40;;;;;;;3.59;100.00;99984.00;5146288;27;20034;-68
2021/12/09 01:14:24;;;;;;;22.33;8.70;;;;;;;3.56;100.00;99986.38;5128284;27;20082;-69
2021/12/09 01:16:49;;;;;;;22.98;8.95;;;;;;;3.64;100.00;99978.63;5125842;27;20027;-69
2021/12/09 01:19:17;;;;;;;20.35;8.60;;;;;;;3.61;100.00;99989.16;5126347;27;20022;-69
2021/12/09 01:21:43;;;;;;;23.05;9.00;;;;;;;3.48;100.00;99990.38;5128240;27;20018;-69
2021/12/09 01:24:08;;;;;;;25.10;9.05;;;;;;;3.51;100.00;99998.00;5142962;27;20162;-70
2021/12/09 01:26:34;;;;;;;26.30;8.55;;;;;;;3.62;100.00;99990.78;5127587;27;20079;-68
2021/12/09 01:29:06;;;;;;;26.90;8.65;;;;;;;3.40;100.00;99990.84;5146101;27;20026;-68
2021/12/09 01:31:37;;;;;;;20.27;8.90;;;;;;;3.54;100.00;99986.63;5126255;27;20556;-68
2021/12/09 01:34:04;;;;;;;20.80;7.97;;;;;;;3.45;100.00;99991.69;5144186;27;20475;-70
2021/12/09 01:36:32;;;;;;;20.17;8.50;;;;;;;3.52;100.00;99986.06;5125701;27;20473;-69
2021/12/09 01:39:02;;;;;;;22.70;9.00;;;;;;;3.59;100.00;99981.28;5119921;27;20027;-68
2021/12/09 01:41:28;;;;;;;26.50;8.45;;;;;;;3.59;100.00;99980.44;5088067;27;20070;-71
2021/12/09 01:43:54;;;;;;;24.25;8.55;;;;;;;3.58;100.00;99986.97;5121820;27;20032;-69
2021/12/09 01:46:23;;;;;;;27.92;8.30;;;;;;;3.55;100.00;99993.69;5112403;27;20058;-70
2021/12/09 01:48:52;;;;;;;23.02;8.63;;;;;;;3.62;100.00;100005.16;5091742;27;20043;-68
2021/12/09 01:51:20;;;;;;;22.60;8.70;;;;;;;3.55;100.00;99995.59;5122784;27;20031;-69
2021/12/09 01:53:46;;;;;;;24.95;9.20;;;;;;;3.50;100.00;99996.38;5105799;27;20331;-70
2021/12/09 01:56:20;;;;;;;20.52;8.75;;;;;;;3.53;100.00;100003.97;5117103;27;20072;-69
2021/12/09 01:58:46;;;;;;;23.55;8.95;;;;;;;3.42;100.00;100000.34;5106670;27;20027;-69
2021/12/09 02:01:11;;;;;;;19.90;8.00;;;;;;;3.48;100.00;100001.22;5106544;27;20035;-69
2021/12/09 02:03:37;;;;;;;22.60;7.22;;;;;;;3.50;100.00;100009.91;5108705;27;20027;-69
2021/12/09 02:06:04;;;;;;;17.42;7.07;;;;;;;3.39;100.00;100005.47;5123779;27;20027;-69
2021/12/09 02:08:29;;;;;;;18.83;7.97;;;;;;;3.40;100.00;100002.50;5124162;27;20027;-69
2021/12/09 02:10:55;;;;;;;19.83;7.45;;;;;;;3.48;100.00;100006.66;5117825;27;20023;-70
2021/12/09 02:13:23;;;;;;;22.27;8.80;;;;;;;3.39;100.00;100000.84;5124673;27;20019;-69
2021/12/09 02:15:52;;;;;;;26.75;8.10;;;;;;;3.39;100.00;100002.75;5104653;27;20167;-69
2021/12/09 02:18:18;;;;;;;20.55;7.63;;;;;;;3.31;100.00;99999.44;5124858;27;20023;-69
2021/12/09 02:20:44;;;;;;;19.05;8.00;;;;;;;3.37;100.00;100000.28;5113611;27;20027;-70
2021/12/09 02:23:12;;;;;;;20.63;8.07;;;;;;;3.33;100.00;99999.19;5121348;27;20047;-71
2021/12/09 02:25:45;;;;;;;21.33;7.78;;;;;;;3.30;100.00;100008.63;5117454;27;20293;-70
2021/12/09 02:28:14;;;;;;;;;;;;;;;3.34;100.00;100002.69;5106822;27;20027;-70
2021/12/09 02:30:40;;;;;;;25.20;7.53;;;;;;;3.43;100.00;99998.47;5123730;27;19951;-70
2021/12/09 02:33:05;;;;;;;23.75;7.20;;;;;;;3.41;100.00;100001.44;5105960;27;20118;-69
2021/12/09 02:35:31;;;;;;;17.27;7.38;;;;;;;3.37;100.00;99985.94;5104576;27;20062;-70
2021/12/09 02:37:56;;;;;;;19.42;7.03;;;;;;;3.28;100.00;100002.66;5106410;27;20031;-69
2021/12/09 02:40:22;;;;;;;27.77;7.40;;;;;;;3.37;100.00;99997.59;5118997;27;20027;-69
2021/12/09 02:42:47;;;;;;;16.40;6.85;;;;;;;3.36;100.00;99997.84;5104884;27;20360;-69
2021/12/09 02:45:13;;;;;;;22.38;7.00;;;;;;;3.38;100.00;99996.53;5123522;27;20043;-70
2021/12/09 02:47:39;;;;;;;14.48;6.57;;;;;;;3.34;100.00;100000.78;5121754;27;20028;-70
2021/12/09 02:50:06;;;;;;;17.83;7.00;;;;;;;3.45;100.00;99994.41;5105819;27;20446;-70
2021/12/09 02:52:32;;;;;;;19.95;6.80;;;;;;;3.48;100.00;99995.81;5122898;27;20031;-68
2021/12/09 02:54:58;;;;;;;19.35;7.05;;;;;;;3.44;100.00;99994.66;5121338;27;20026;-69
2021/12/09 02:57:24;;;;;;;17.60;6.65;;;;;;;3.56;100.00;99998.06;5104391;27;20027;-68
2021/12/09 02:59:50;;;;;;;20.92;6.88;;;;;;;3.61;100.00;99997.28;5122371;27;20224;-69
2021/12/09 03:02:16;;;;;;;21.75;6.68;;;;;;;3.60;100.00;99993.75;5106199;27;20031;-69
2021/12/09 03:04:47;;;;;;;21.98;6.38;;;;;;;3.56;100.00;99989.09;5132643;27;20075;-69
2021/12/09 03:07:24;;;;;;;18.70;6.20;;;;;;;3.64;100.00;99984.03;5144973;27;20049;-69
2021/12/09 03:09:59;;;;;;;21.55;7.13;;;;;;;3.64;100.00;99984.03;5141436;27;20333;-69
2021/12/09 03:12:29;;;;;;;19.27;7.10;;;;;;;3.67;100.00;99988.94;5125497;27;20027;-70
2021/12/09 03:14:55;;;;;;;18.50;6.50;;;;;;;3.67;100.00;99999.78;5126161;27;20387;-70
2021/12/09 03:17:21;;;;;;;17.13;6.78;;;;;;;3.60;100.00;99987.50;5146118;27;20069;-70
2021/12/09 03:19:47;;;;;;;18.42;6.60;;;;;;;3.65;100.00;99990.25;5107995;27;20508;-69
2021/12/09 03:22:14;;;;;;;17.75;6.45;;;;;;;3.70;100.00;99986.78;5127044;27;20031;-70
2021/12/09 03:24:39;;;;;;;15.80;5.80;;;;;;;3.67;100.00;99993.53;5142348;27;20122;-68
2021/12/09 03:27:06;;;;;;;20.23;6.72;;;;;;;3.74;100.00;99990.59;5137380;27;20102;-69
2021/12/09 03:29:34;;;;;;;19.13;6.07;;;;;;;3.64;100.00;99989.47;5126838;27;20043;-68
2021/12/09 03:32:03;;;;;;;19.13;5.75;;;;;;;3.71;100.00;99978.41;5093571;27;20027;-68
2021/12/09 03:34:32;;;;;;;18.85;5.60;;;;;;;3.84;100.00;99990.72;5127482;27;20513;-69
2021/12/09 03:37:02;;;;;;;16.05;5.53;;;;;;;3.85;100.00;99984.19;5110489;27;20107;-69
2021/12/09 03:39:35;;;;;;;20.73;6.47;;;;;;;3.90;100.00;99995.09;5126007;27;20035;-69
2021/12/09 03:42:00;;;;;;;14.30;6.03;;;;;;;3.77;100.00;99982.81;5091185;27;20114;-69
2021/12/09 03:44:28;;;;;;;17.20;6.88;;;;;;;3.85;100.00;99986.91;5128440;27;20130;-70
2021/12/09 03:46:55;;;;;;;20.50;7.32;;;;;;;3.84;100.00;99996.13;5126889;27;20432;-68
2021/12/09 03:49:23;;;;;;;17.90;6.20;;;;;;;3.95;100.00;100002.44;5127641;27;20043;-69
2021/12/09 03:51:50;;;;;;;22.60;7.00;;;;;;;3.76;100.00;100005.56;5126698;27;20390;-68
2021/12/09 03:54:17;;;;;;;18.40;5.88;;;;;;;4.04;100.00;100011.75;5091018;27;20117;-68
2021/12/09 03:56:43;;;;;;;17.60;6.40;;;;;;;4.08;100.00;100002.00;5085706;27;20042;-69
2021/12/09 03:59:11;;;;;;;18.63;6.65;;;;;;;4.19;100.00;100002.91;5127030;27;20027;-68
2021/12/09 04:01:39;;;;;;;18.08;6.50;;;;;;;3.96;100.00;100004.91;5107560;27;20126;-68
2021/12/09 04:04:06;;;;;;;19.90;6.18;;;;;;;4.17;100.00;100008.59;5127231;27;20027;-69
2021/12/09 04:06:32;;;;;;;15.73;5.95;;;;;;;4.06;100.00;100012.31;5108691;27;20047;-69
2021/12/09 04:09:00;;;;;;;18.30;5.82;;;;;;;4.24;100.00;100002.94;5125710;27;20364;-68
2021/12/09 04:11:26;;;;;;;13.40;5.55;;;;;;;4.15;100.00;99999.06;5102230;27;20038;-69
2021/12/09 04:13:52;;;;;;;21.63;6.35;;;;;;;4.28;100.00;100006.78;5127647;27;20027;-68
2021/12/09 04:16:17;;;;;;;20.90;5.82;;;;;;;4.16;100.00;99998.81;5126741;27;20393;-69
2021/12/09 04:18:44;;;;;;;19.63;6.05;;;;;;;4.02;100.00;100008.50;5126485;27;20362;-70
2021/12/09 04:21:12;;;;;;;15.38;5.78;;;;;;;3.82;100.00;100018.09;5125548;27;20130;-69
2021/12/09 04:23:39;;;;;;;15.93;5.75;;;;;;;4.00;100.00;100008.75;5127489;27;20027;-69
2021/12/09 04:26:06;;;;;;;21.13;5.95;;;;;;;3.91;100.00;100012.19;5080852;27;20031;-69
2021/12/09 04:28:33;;;;;;;20.45;5.65;;;;;;;3.92;100.00;100016.53;5108955;27;20034;-69
2021/12/09 04:30:59;;;;;;;18.65;5.75;;;;;;;3.86;100.00;100018.38;5106108;27;20418;-69
2021/12/09 04:33:25;;;;;;;13.93;5.97;;;;;;;3.83;100.00;100013.47;5128075;27;20358;-68
2021/12/09 04:35:50;;;;;;;14.40;5.03;;;;;;;3.97;100.00;100017.41;5125446;27;20019;-69
2021/12/09 04:38:16;;;;;;;20.45;6.22;;;;;;;3.87;100.00;100025.47;5091855;27;20839;-70
2021/12/09 04:40:41;;;;;;;19.13;5.78;;;;;;;3.83;100.00;100035.97;5099133;27;20031;-69
2021/12/09 04:43:07;;;;;;;19.10;6.07;;;;;;;3.81;100.00;100021.06;5075303;27;20027;-68
2021/12/09 04:45:38;;;;;;;20.58;6.13;;;;;;;3.64;100.00;100034.69;5125364;27;20465;-68
2021/12/09 04:48:04;;;;;;;20.50;6.07;;;;;;;3.77;100.00;100036.19;5107367;27;20473;-69
2021/12/09 04:50:31;;;;;;;16.02;5.90;;;;;;;3.74;100.00;100033.97;5107818;27;20037;-68
2021/12/09 04:52:56;;;;;;;22.60;6.05;;;;;;;3.65;100.00;100033.63;5107783;27;20062;-69
2021/12/09 04:55:22;;;;;;;16.42;6.00;;;;;;;3.73;100.00;100045.91;5119345;27;20069;-69
2021/12/09 04:57:48;;;;;;;17.08;5.90;;;;;;;3.52;100.00;100045.69;5125937;27;20141;-69
2021/12/09 05:00:18;;;;;;;16.75;5.97;;;;;;;3.66;100.00;100049.66;5124485;27;20031;-69
2021/12/09 05:05:12;;;;;;;22.98;5.50;;;;;;;3.60;100.00;100039.00;5124661;27;20031;-68
2021/12/09 05:07:37;;;;;;;17.38;5.25;;;;;;;3.56;100.00;100038.72;5126637;27;20534;-69
2021/12/09 05:10:04;;;;;;;16.30;6.18;;;;;;;3.63;100.00;100046.63;5120590;27;20297;-69
2021/12/09 05:12:31;;;;;;;15.85;5.55;;;;;;;3.59;100.00;100040.91;5089917;27;20040;-68
2021/12/09 05:14:56;;;;;;;10.40;5.03;;;;;;;3.70;100.00;100049.16;5106884;27;20035;-69
2021/12/09 05:17:21;;;;;;;11.80;5.72;;;;;;;3.67;100.00;100043.16;5109246;27;20049;-69
2021/12/09 05:19:47;;;;;;;16.42;5.85;;;;;;;3.70;100.00;100046.44;5124571;27;20027;-69
2021/12/09 05:22:13;;;;;;;16.00;5.93;;;;;;;3.55;100.00;100042.47;5127585;27;20069;-69
2021/12/09 05:24:40;;;;;;;17.83;5.30;;;;;;;3.55;100.00;100042.47;5105407;27;20244;-69
2021/12/09 05:27:07;;;;;;;14.75;5.80;;;;;;;3.66;100.00;100041.50;5124877;27;20417;-69
2021/12/09 05:29:39;;;;;;;18.90;6.25;;;;;;;3.72;100.00;100041.56;5147216;27;20026;-68
2021/12/09 05:32:13;;;;;;;18.92;5.80;;;;;;;3.54;100.00;100034.59;5146903;27;20030;-69
2021/12/09 05:34:49;;;;;;;21.33;5.95;;;;;;;3.60;100.00;100039.81;5127183;27;20337;-69
2021/12/09 05:37:19;;;;;;;19.02;5.78;;;;;;;3.72;100.00;100045.09;5110571;27;20113;-69
2021/12/09 05:39:49;;;;;;;14.50;5.72;;;;;;;3.64;100.00;100048.25;5141171;27;20072;-69
2021/12/09 05:42:20;;;;;;;19.65;5.45;;;;;;;3.70;100.00;100051.84;5109469;27;20057;-69
2021/12/09 05:44:48;;;;;;;15.48;5.35;;;;;;;3.71;100.00;100061.63;5127671;27;20118;-69
2021/12/09 05:47:13;;;;;;;15.07;5.43;;;;;;;3.67;100.00;100053.16;5127272;27;20030;-69
2021/12/09 05:49:43;;;;;;;19.45;5.78;;;;;;;3.58;100.00;100054.72;5126241;27;20378;-69
2021/12/09 05:52:09;;;;;;;19.88;6.13;;;;;;;3.55;100.00;100055.22;5145091;27;20607;-69
2021/12/09 05:54:35;;;;;;;19.33;5.80;;;;;;;3.56;100.00;100057.69;5135673;27;20466;-67
2021/12/09 05:57:01;;;;;;;21.65;5.72;;;;;;;3.48;100.00;100072.50;5120869;27;20023;-68
2021/12/09 05:59:27;;;;;;;20.67;5.72;;;;;;;3.65;100.00;100066.97;5105476;27;20626;-69
2021/12/09 06:01:53;;;;;;;19.60;5.68;;;;;;;3.54;100.00;100059.81;5088555;27;20027;-69
2021/12/09 06:04:21;;;;;;;12.98;5.50;;;;;;;3.58;100.00;100060.13;5106658;27;20027;-69
2021/12/09 06:06:47;;;;;;;20.02;6.50;;;;;;;3.56;100.00;100063.09;5105417;27;20030;-69
2021/12/09 06:09:14;;;;;;;17.65;6.22;;;;;;;3.68;100.00;100079.22;5103447;27;20108;-69
2021/12/09 06:11:45;;;;;;;13.23;5.68;;;;;;;3.60;100.00;100066.13;5099802;27;20202;-69
2021/12/09 06:14:10;;;;;;;15.60;5.65;;;;;;;3.70;100.00;100078.97;5122539;27;20296;-69
2021/12/09 06:16:36;;;;;;;17.58;5.85;;;;;;;3.75;100.00;100070.88;5105659;27;20231;-69
2021/12/09 06:19:02;;;;;;;18.83;6.47;;;;;;;3.62;100.00;100070.22;5106084;27;20068;-69
2021/12/09 06:21:29;;;;;;;19.40;6.80;;;;;;;3.81;100.00;100075.28;5123800;27;20115;-68
2021/12/09 06:23:56;;;;;;;17.85;6.10;;;;;;;3.87;100.00;100090.53;5105949;27;20128;-70
2021/12/09 06:26:21;;;;;;;19.85;6.15;;;;;;;3.90;100.00;100084.56;5098769;27;20119;-68
2021/12/09 06:28:47;;;;;;;17.33;6.18;;;;;;;3.84;100.00;100072.88;5125503;27;20143;-69
2021/12/09 06:31:13;;;;;;;20.17;6.70;;;;;;;3.91;100.00;100069.94;5102953;27;20045;-68
2021/12/09 06:33:39;;;;;;;16.13;6.03;;;;;;;3.90;100.00;100079.16;5127219;27;20027;-69
2021/12/09 06:36:05;;;;;;;18.50;6.22;;;;;;;4.04;100.00;100071.44;5104722;27;20019;-69
2021/12/09 06:38:32;;;;;;;21.42;7.22;;;;;;;4.02;100.00;100070.88;5089526;27;20042;-68
2021/12/09 06:40:58;;;;;;;18.73;6.70;;;;;;;4.01;100.00;100075.47;5115044;27;20039;-68
2021/12/09 06:43:23;;;;;;;24.75;6.82;;;;;;;4.07;100.00;100057.34;5106996;27;20526;-68
2021/12/09 06:45:49;;;;;;;20.75;6.38;;;;;;;4.13;100.00;100074.47;5100731;28;20047;-69
2021/12/09 06:48:14;;;;;;;25.05;6.70;;;;;;;4.03;100.00;100067.06;5103062;28;20077;-68
2021/12/09 06:50:40;;;;;;;18.17;6.57;;;;;;;4.05;100.00;100070.38;5099862;28;20477;-69
2021/12/09 06:53:06;;;;;;;16.65;6.47;;;;;;;4.12;100.00;100062.00;5103778;28;20035;-69
2021/12/09 06:55:31;;;;;;;13.32;6.22;;;;;;;4.18;100.00;100074.53;5096754;28;20483;-68
2021/12/09 06:57:57;;;;;;;16.02;6.80;;;;;;;3.98;100.00;100081.41;5103135;28;20047;-69
2021/12/09 07:00:27;;;;;;;14.93;5.85;;;;;;;4.21;100.00;100077.56;5086647;28;20680;-69
2021/12/09 07:02:53;;;;;;;17.08;6.72;;;;;;;4.27;100.00;100072.19;5107158;28;20031;-69
2021/12/09 07:05:21;;;;;;;16.00;6.20;;;;;;;4.18;100.00;100080.78;5106099;28;20044;-70
2021/12/09 07:07:46;;;;;;;14.45;6.22;;;;;;;4.28;100.00;100085.47;5110205;28;20139;-72
2021/12/09 07:10:14;;;;;;;18.60;6.53;;;;;;;4.29;100.00;100078.16;5117840;27;20039;-69
2021/12/09 07:12:40;;;;;;;17.75;6.13;;;;;;;4.29;100.00;100086.28;5127747;27;20038;-70
2021/12/09 07:15:08;;;;;;;13.60;5.68;;;;;;;4.33;100.00;100079.25;5125472;27;20446;-70
2021/12/09 07:17:34;;;;;;;17.23;6.10;;;;;;;4.22;100.00;100084.59;5130534;27;20035;-68
2021/12/09 07:20:01;;;;;;;14.35;6.20;;;;;;;4.19;100.00;100087.03;5124243;27;20026;-70
2021/12/09 07:22:27;;;;;;;14.43;6.18;;;;;;;4.20;100.00;100086.75;5128115;27;20380;-71
2021/12/09 07:24:52;;;;;;;16.75;5.75;;;;;;;4.27;100.00;100078.41;5121376;27;20431;-70
2021/12/09 07:27:18;;;;;;;14.80;6.05;;;;;;;4.13;100.00;100083.47;5123642;27;20058;-69
2021/12/09 07:29:43;;;;;;;14.20;5.90;;;;;;;4.18;100.00;100080.78;5127333;27;20127;-70
2021/12/09 07:32:09;;;;;;;16.55;5.80;;;;;;;4.15;100.00;100088.59;5127072;27;20119;-69
2021/12/09 07:34:35;;;;;;;10.52;6.20;;;;;;;4.22;100.00;100092.75;5127858;27;20070;-69
2021/12/09 07:37:04;;;;;;;16.13;6.97;;;;;;;4.29;100.00;100099.84;5127410;27;20549;-70
2021/12/09 07:39:37;;;;;;;14.23;6.80;;;;;;;4.27;100.00;100096.59;5121813;27;20532;-69
2021/12/09 07:42:06;;;;;;;22.30;7.97;;;;;;;4.34;100.00;100100.72;5124083;27;20031;-70
2021/12/09 07:44:32;;;;;;;17.90;7.40;;;;;;;4.55;100.00;100093.53;5124028;27;20477;-69
2021/12/09 07:46:59;;;;;;;16.48;7.22;;;;;;;4.54;100.00;100101.94;5146824;27;20401;-69
2021/12/09 07:49:26;;;;;;;16.15;7.72;;;;;;;4.55;100.00;100107.13;5127448;27;20125;-70
2021/12/09 07:51:53;;;;;;;15.35;8.18;;;;;;;4.67;100.00;100112.34;5111824;27;20050;-69
2021/12/09 07:54:23;;;;;;;15.85;7.88;;;;;;;4.79;100.00;100110.28;5143641;27;20023;-69
2021/12/09 07:56:48;;;;;;;18.30;8.00;;;;;;;4.60;100.00;100109.88;5142370;27;20396;-70
2021/12/09 07:59:14;;;;;;;18.75;8.52;;;;;;;4.66;100.00;100108.03;5126691;27;20027;-69
2021/12/09 08:01:40;;;;;;;14.95;8.35;;;;;;;4.74;100.00;100114.88;5145795;27;20481;-69
2021/12/09 08:04:07;;;;;;;20.60;8.85;;;;;;;4.71;100.00;100113.50;5146189;27;20081;-69
2021/12/09 08:06:36;;;;;;;17.58;9.30;;;;;;;4.67;100.00;100103.41;5109668;27;20038;-69
2021/12/09 08:09:09;;;;;;;16.60;9.02;;;;;;;4.74;100.00;100110.25;5147564;27;20027;-69
2021/12/09 08:11:37;;;;;;;20.20;8.93;;;;;;;4.84;100.00;100108.66;5121201;27;20121;-70
2021/12/09 08:14:09;;;;;;;19.52;9.98;;;;;;;4.68;100.00;100119.44;5146383;27;20503;-69
2021/12/09 08:16:37;;;;;;;20.35;10.15;;;;;;;4.78;100.00;100127.66;5109529;27;20552;-69
2021/12/09 08:19:27;;;;;;;17.83;9.18;;;;;;;4.89;100.00;100125.84;5128438;27;20385;-69
2021/12/09 08:21:53;;;;;;;17.00;9.85;;;;;;;4.90;100.00;100127.47;5126845;27;20519;-70
2021/12/09 08:24:21;;;;;;;19.85;9.45;;;;;;;4.82;100.00;100130.69;5124294;27;20110;-69
2021/12/09 08:26:47;;;;;;;18.63;10.15;;;;;;;4.86;100.00;100134.50;5142429;27;20164;-69
2021/12/09 08:29:12;;;;;;;22.60;10.07;;;;;;;5.02;100.00;100137.31;5143905;27;20153;-69
2021/12/09 08:31:38;;;;;;;22.00;10.75;;;;;;;4.86;100.00;100136.41;5144471;27;20035;-70
2021/12/09 08:34:03;;;;;;;15.07;10.82;;;;;;;4.82;100.00;100135.28;5111120;27;20054;-70
2021/12/09 08:36:29;;;;;;;19.23;10.90;;;;;;;5.10;100.00;100134.94;5143037;27;20355;-69
2021/12/09 08:38:54;;;;;;;21.05;10.90;;;;;;;5.19;100.00;100131.72;5128874;27;20399;-69
2021/12/09 08:41:21;;;;;;;19.42;11.57;;;;;;;5.21;100.00;100127.63;5140208;27;20083;-70
2021/12/09 08:43:47;;;;;;;20.75;10.90;;;;;;;5.23;100.00;100132.81;5128357;27;20027;-70
2021/12/09 08:46:15;;;;;;;19.30;11.27;;;;;;;5.36;100.00;100129.59;5142649;27;20513;-69
2021/12/09 08:48:41;;;;;;;20.75;11.98;;;;;;;5.47;100.00;100131.28;5110357;27;20078;-71
2021/12/09 08:51:06;;;;;;;20.38;11.82;;;;;;;5.30;100.00;100130.69;5125581;27;20033;-69
2021/12/09 08:53:32;;;;;;;22.63;12.43;;;;;;;5.48;100.00;100132.94;5144976;27;20046;-71
2021/12/09 08:55:57;;;;;;;18.80;11.70;;;;;;;5.50;100.00;100138.91;5140662;27;20026;-69
2021/12/09 08:58:23;;;;;;;20.70;12.45;;;;;;;5.51;100.00;100137.03;5126980;27;20054;-70
2021/12/09 09:00:52;;;;;;;21.98;12.18;;;;;;;5.41;100.00;100131.53;5144097;27;20030;-71
2021/12/09 09:03:17;;;;;;;19.70;11.93;;;;;;;5.48;100.00;100141.09;5127291;27;20421;-71
2021/12/09 09:05:43;;;;;;;18.63;12.80;;;;;;;5.57;100.00;100135.94;5146077;27;20035;-71
2021/12/09 09:08:08;;;;;;;21.77;12.77;;;;;;;5.40;100.00;100138.06;5109933;27;20038;-70
2021/12/09 09:10:38;;;;;;;23.23;12.45;;;;;;;5.40;100.00;100138.06;5136615;27;20287;-70
2021/12/09 09:13:04;;;;;;;20.95;12.20;;;;;;;5.58;100.00;100140.31;5146568;27;20038;-70
2021/12/09 09:15:31;;;;;;;22.35;13.77;;;;;;;5.48;100.00;100141.09;5142686;27;20027;-72
2021/12/09 09:17:58;;;;;;;23.27;14.23;;;;;;;5.60;100.00;100138.16;5145287;27;20033;-70
2021/12/09 09:20:27;;;;;;;19.85;13.25;;;;;;;5.69;100.00;100143.91;5123312;27;20534;-69
2021/12/09 09:22:53;;;;;;;26.35;14.05;;;;;;;5.83;100.00;100147.75;5145226;27;20109;-70
2021/12/09 09:25:28;;;;;;;28.65;13.85;;;;;;;5.96;100.00;100145.59;5120670;27;20418;-69
2021/12/09 09:27:53;;;;;;;21.17;13.65;;;;;;;5.98;100.00;100148.91;5147507;27;20396;-70
2021/12/09 09:30:19;;;;;;;20.63;13.90;;;;;;;5.88;100.00;100150.47;5108723;27;20030;-69
2021/12/09 09:32:47;;;;;;;28.52;14.07;;;;;;;5.97;100.00;100148.09;5112067;27;20034;-71
2021/12/09 09:35:12;;;;;;;22.02;14.68;;;;;;;6.07;100.00;100156.28;5127947;27;20034;-71
2021/12/09 09:37:38;;;;;;;20.40;14.30;;;;;;;6.20;100.00;100148.69;5145118;27;20075;-71
2021/12/09 09:40:28;;;;;;;22.83;15.45;;;;;;;6.10;100.00;100159.53;5124135;27;20400;-70
2021/12/09 09:43:02;;;;;;;24.13;14.70;;;;;;;5.95;100.00;100154.84;5146202;27;20105;-69
2021/12/09 09:45:29;;;;;;;27.35;15.75;;;;;;;5.85;100.00;100159.19;5102029;27;20257;-70
2021/12/09 09:47:55;;;;;;;22.98;14.45;;;;;;;5.71;100.00;100160.78;5125293;27;20047;-72
2021/12/09 09:50:21;;;;;;;25.88;15.48;;;;;;;6.06;100.00;100161.97;5122239;27;20035;-71
2021/12/09 09:52:47;;;;;;;24.73;15.15;;;;;;;6.17;100.00;100155.47;5125278;27;20030;-71
2021/12/09 09:55:20;;;;;;;23.40;15.85;;;;;;;6.30;100.00;100158.78;5099114;27;20034;-69
2021/12/09 09:57:47;;;;;;;20.60;14.13;;;;;;;6.31;100.00;100169.38;5105898;27;20088;-71
2021/12/09 10:00:13;;;;;;;24.27;14.43;;;;;;;6.35;100.00;100162.31;5122093;27;20404;-72
2021/12/09 10:02:40;;;;;;;23.58;13.98;;;;;;;6.17;100.00;100166.38;5123364;27;20405;-72
2021/12/09 10:05:08;;;;;;;21.77;13.65;;;;;;;6.01;100.00;100165.50;5086902;27;20027;-69
2021/12/09 10:07:35;;;;;;;23.75;14.55;;;;;;;6.15;100.00;100165.00;5103812;27;20026;-71
2021/12/09 10:10:02;;;;;;;22.75;13.45;;;;;;;6.20;100.00;100165.81;5118778;27;20027;-70
2021/12/09 10:12:28;;;;;;;21.67;13.45;;;;;;;6.19;100.00;100169.63;5101955;27;20031;-70
2021/12/09 10:14:55;;;;;;;20.58;12.95;;;;;;;6.32;100.00;100168.28;5105085;27;20357;-71
2021/12/09 10:17:26;;;;;;;21.23;11.80;;;;;;;6.06;100.00;100175.59;5105299;27;20056;-68
2021/12/09 10:19:51;;;;;;;19.10;11.77;;;;;;;6.23;100.00;100167.19;5122042;27;20029;-70
2021/12/09 10:22:23;;;;;;;19.52;11.45;;;;;;;6.07;100.00;100174.50;5103895;27;20023;-70
2021/12/09 10:24:53;;;;;;;19.15;11.15;;;;;;;6.29;100.00;100174.28;5099542;27;20435;-71
2021/12/09 10:27:28;;;;;;;15.63;10.48;;;;;;;6.30;100.00;100181.38;5128598;27;20326;-73
2021/12/09 10:30:00;;;;;;;17.73;10.70;;;;;;;6.29;100.00;100162.56;5122935;27;20038;-72
2021/12/09 10:32:31;;;;;;;20.40;11.25;;;;;;;6.47;100.00;100153.06;5122898;27;20118;-72
2021/12/09 10:35:05;;;;;;;19.60;11.52;;;;;;;6.46;100.00;100149.53;5126753;27;20142;-72
2021/12/09 10:37:34;;;;;;;15.98;10.93;;;;;;;6.31;100.00;100142.16;5108650;27;20069;-73
2021/12/09 10:40:12;;;;;;;16.83;11.10;;;;;;;6.41;100.00;100146.78;5123597;27;20106;-72
2021/12/09 10:42:41;;;;;;;20.65;10.43;;;;;;;6.30;100.00;100156.06;5105390;27;20107;-75
2021/12/09 10:45:29;;;;;;;22.20;10.93;;;;;;;6.47;100.00;100153.06;5126083;27;20030;-72
2021/12/09 10:48:20;;;;;;;16.00;10.93;;;;;;;6.31;100.00;100150.31;5129003;27;20046;-71
2021/12/09 10:53:46;;;;;;;17.98;10.38;;;;;;;6.52;100.00;100142.16;5127769;27;20058;-72
2021/12/09 10:56:23;;;;;;;24.85;11.52;;;;;;;6.55;100.00;100142.44;5074586;27;20042;-72
2021/12/09 10:58:49;;;;;;;19.90;11.32;;;;;;;6.68;100.00;100135.63;5109869;27;20027;-72
2021/12/09 11:01:20;;;;;;;19.40;10.05;;;;;;;6.74;100.00;100140.00;5126811;27;20027;-71
2021/12/09 11:03:53;;;;;;;16.33;10.40;;;;;;;6.52;100.00;100137.53;5126936;27;20325;-71
2021/12/09 11:06:20;;;;;;;18.05;10.32;;;;;;;6.30;100.00;100143.25;5106635;27;20031;-72
2021/12/09 11:08:47;;;;;;;14.23;10.70;;;;;;;6.43;100.00;100141.91;5109104;27;20042;-74
2021/12/09 11:11:19;;;;;;;17.60;10.68;;;;;;;6.52;100.00;100142.97;5102780;27;20438;-71
2021/12/09 11:13:54;;;;;;;20.05;11.10;;;;;;;6.61;100.00;100138.63;5134725;27;20621;-73
2021/12/09 11:16:28;;;;;;;19.38;11.85;;;;;;;6.58;100.00;100141.91;5147193;27;20396;-72
2021/12/09 11:19:40;;;;;;;18.77;12.68;;;;;;;6.52;100.00;100137.53;5129986;27;20045;-74
2021/12/09 11:22:13;;;;;;;25.75;13.23;;;;;;;6.56;100.00;100140.53;5136761;27;20515;-73
2021/12/09 11:24:43;;;;;;;22.77;12.38;;;;;;;6.27;100.00;100130.19;5124738;27;20029;-72